Time;durP1;ratioP1;P1;durP2;ratioP2;P2;SDS_P1;SDS_P2;PMS_P1;PMS_P2;Temp;Humidity;BMP_temperature;BMP_pressure;BME280_temperature;BME280_humidity;BME280_pressure;Samples;Min_cycle;Max_cycle;Signal;HPM_P1;HPM_P2
2021/03/13 00:01:00;;;;;;;8.70;2.70;;;;;;;9.16;61.51;100495.66;4999211;28;20026;-61
2021/03/13 00:03:25;;;;;;;8.30;2.58;;;;;;;9.14;61.08;100492.38;5000586;28;20045;-61
2021/03/13 00:05:51;;;;;;;10.18;3.17;;;;;;;9.10;61.22;100496.69;4999888;28;20029;-61
2021/03/13 00:08:16;;;;;;;7.85;2.40;;;;;;;9.06;61.47;100490.97;4999919;28;20057;-61
2021/03/13 00:10:44;;;;;;;8.35;2.60;;;;;;;9.02;61.44;100494.47;5000261;28;20027;-61
2021/03/13 00:13:10;;;;;;;9.23;2.90;;;;;;;8.98;61.30;100486.03;4999758;28;20435;-61
2021/03/13 00:15:37;;;;;;;6.85;2.53;;;;;;;8.96;61.30;100486.31;4999968;28;20022;-61
2021/03/13 00:18:03;;;;;;;9.57;3.15;;;;;;;8.96;61.54;100491.75;4999573;28;20031;-61
2021/03/13 00:20:31;;;;;;;7.82;2.47;;;;;;;8.97;61.31;100466.19;5000126;28;20022;-61
2021/03/13 00:22:57;;;;;;;7.35;2.60;;;;;;;9.03;61.50;100474.34;4999409;28;20385;-61
2021/03/13 00:25:24;;;;;;;6.43;2.90;;;;;;;9.04;61.02;100470.56;4999805;28;20430;-61
2021/03/13 00:27:51;;;;;;;7.05;2.80;;;;;;;9.04;61.05;100465.13;4999619;28;20147;-61
2021/03/13 00:30:19;;;;;;;7.15;2.17;;;;;;;9.05;61.01;100470.28;4999137;28;20454;-61
2021/03/13 00:32:48;;;;;;;9.10;2.53;;;;;;;9.04;61.19;100468.69;5000068;28;20045;-61
2021/03/13 00:35:15;;;;;;;6.43;2.15;;;;;;;9.03;61.00;100456.16;5000016;28;20619;-61
2021/03/13 00:37:40;;;;;;;7.47;2.78;;;;;;;9.02;61.12;100448.25;5000264;28;20030;-61
2021/03/13 00:40:10;;;;;;;11.05;2.30;;;;;;;9.01;60.83;100443.91;4999574;28;20038;-61
2021/03/13 00:42:36;;;;;;;9.27;2.88;;;;;;;9.01;60.84;100439.28;4999420;28;20034;-61
2021/03/13 00:45:04;;;;;;;9.07;2.63;;;;;;;9.07;60.76;100442.84;4998444;28;20045;-61
2021/03/13 00:47:29;;;;;;;8.15;2.20;;;;;;;9.06;60.54;100438.47;4999418;28;20478;-61
2021/03/13 00:49:55;;;;;;;9.48;2.50;;;;;;;8.94;60.88;100415.03;4999668;28;20488;-61
2021/03/13 00:52:20;;;;;;;5.07;2.75;;;;;;;8.87;60.68;100400.06;4999753;28;20030;-61
2021/03/13 00:54:46;;;;;;;8.05;2.60;;;;;;;9.06;60.70;100431.13;4998976;28;20034;-61
2021/03/13 00:57:11;;;;;;;10.57;2.42;;;;;;;8.94;60.19;100414.25;4999214;28;20088;-61
2021/03/13 00:59:37;;;;;;;7.25;2.08;;;;;;;9.00;60.29;100425.97;4997010;28;20068;-61
2021/03/13 01:02:02;;;;;;;6.30;1.92;;;;;;;8.92;60.27;100421.84;4998812;28;20030;-61
2021/03/13 01:04:28;;;;;;;5.80;2.33;;;;;;;8.94;59.87;100431.34;4999012;28;20096;-61
2021/03/13 01:06:53;;;;;;;5.22;1.67;;;;;;;8.50;60.00;100377.38;4999432;28;20480;-61
2021/03/13 01:09:19;;;;;;;8.07;1.80;;;;;;;8.88;60.15;100423.47;5005701;28;20023;-61
2021/03/13 01:11:44;;;;;;;8.63;2.30;;;;;;;8.87;59.96;100417.19;5000133;28;20030;-61
2021/03/13 01:14:10;;;;;;;6.97;1.85;;;;;;;8.91;60.16;100423.75;5005892;28;20041;-61
2021/03/13 01:16:36;;;;;;;5.75;1.80;;;;;;;8.89;59.68;100415.03;4998899;28;20041;-61
2021/03/13 01:19:02;;;;;;;5.18;1.70;;;;;;;8.93;59.43;100415.31;4998776;28;20038;-61
2021/03/13 01:21:27;;;;;;;7.05;1.75;;;;;;;8.86;59.74;100410.13;5031140;28;20034;-61
2021/03/13 01:23:53;;;;;;;5.13;1.85;;;;;;;8.96;59.55;100420.22;4998478;28;20026;-61
2021/03/13 01:26:18;;;;;;;4.90;1.65;;;;;;;8.94;59.33;100416.97;4999220;28;20492;-61
2021/03/13 01:28:43;;;;;;;4.95;1.70;;;;;;;8.96;59.07;100421.03;4998648;28;20054;-61
2021/03/13 01:31:09;;;;;;;5.85;1.77;;;;;;;8.96;59.39;100410.16;4998875;28;20456;-61
2021/03/13 01:33:34;;;;;;;6.78;2.00;;;;;;;8.94;58.80;100406.88;4998631;28;20088;-61
2021/03/13 01:36:00;;;;;;;8.95;1.83;;;;;;;9.04;59.12;100425.16;4988713;28;20027;-61
2021/03/13 01:38:26;;;;;;;6.38;1.80;;;;;;;9.02;58.65;100412.88;5006990;28;20033;-61
2021/03/13 01:40:52;;;;;;;6.05;1.95;;;;;;;9.08;58.55;100409.13;4999565;28;20117;-61
2021/03/13 01:43:17;;;;;;;4.78;1.98;;;;;;;8.98;58.25;100401.72;4998126;28;20057;-61
2021/03/13 01:45:43;;;;;;;6.40;2.10;;;;;;;9.07;58.39;100408.28;4998291;28;20037;-61
2021/03/13 01:48:08;;;;;;;6.25;1.60;;;;;;;8.92;58.38;100389.19;4998310;28;20053;-61
2021/03/13 01:50:34;;;;;;;6.45;1.77;;;;;;;9.04;58.30;100410.72;4998223;28;20061;-61
2021/03/13 01:53:00;;;;;;;5.70;1.80;;;;;;;8.84;58.41;100379.69;4998230;28;20026;-61
2021/03/13 01:55:26;;;;;;;5.05;1.95;;;;;;;8.98;58.27;100399.84;4998087;28;20041;-61
2021/03/13 01:57:51;;;;;;;5.95;2.10;;;;;;;8.97;57.91;100395.47;4997880;28;20034;-61
2021/03/13 02:00:20;;;;;;;5.97;1.70;;;;;;;8.96;58.00;100393.84;4997903;28;20026;-61
2021/03/13 02:02:45;;;;;;;4.05;1.20;;;;;;;8.81;57.83;100372.84;4998215;28;20026;-61
2021/03/13 02:05:20;;;;;;;10.35;2.22;;;;;;;8.94;57.58;100396.00;4997606;28;20026;-61
2021/03/13 02:07:56;;;;;;;4.97;1.60;;;;;;;8.88;57.81;100385.41;4998423;28;20026;-61
2021/03/13 02:10:51;;;;;;;7.07;1.70;;;;;;;8.83;57.42;100378.03;4996905;28;20037;-61
2021/03/13 02:13:22;;;;;;;6.60;1.50;;;;;;;8.74;57.46;100371.50;4995836;28;20074;-61
2021/03/13 02:16:03;;;;;;;4.85;1.77;;;;;;;8.77;57.37;100381.81;4998001;28;20034;-61
2021/03/13 02:18:36;;;;;;;7.55;1.67;;;;;;;8.78;57.24;100378.84;4997661;28;20466;-61
2021/03/13 02:21:04;;;;;;;5.05;1.77;;;;;;;8.74;57.01;100383.16;4998126;28;20446;-61
2021/03/13 02:23:35;;;;;;;4.78;1.60;;;;;;;8.64;56.99;100364.94;4997641;28;20036;-61
2021/03/13 02:26:30;;;;;;;4.47;1.50;;;;;;;8.66;56.75;100368.19;4997907;28;20029;-61
2021/03/13 02:29:14;;;;;;;4.25;1.35;;;;;;;8.63;56.96;100370.63;4997189;28;20401;-61
2021/03/13 02:31:43;;;;;;;4.13;1.50;;;;;;;8.60;56.80;100369.25;4997513;28;20030;-61
2021/03/13 02:34:10;;;;;;;3.72;1.38;;;;;;;8.50;56.63;100351.00;4997748;28;20141;-61
2021/03/13 02:36:36;;;;;;;5.88;1.60;;;;;;;8.48;56.70;100345.00;4997917;28;20033;-61
2021/03/13 02:39:06;;;;;;;4.70;1.23;;;;;;;8.56;56.63;100361.88;4998035;28;20230;-61
2021/03/13 02:41:38;;;;;;;4.78;1.45;;;;;;;8.63;56.55;100359.75;4996307;28;20069;-61
2021/03/13 02:44:07;;;;;;;5.22;1.35;;;;;;;8.62;56.54;100350.78;4997665;28;20049;-61
2021/03/13 02:46:41;;;;;;;5.47;1.17;;;;;;;8.62;55.95;100353.50;4996989;28;20413;-61
2021/03/13 02:49:07;;;;;;;8.98;1.40;;;;;;;8.58;55.88;100346.13;4997374;28;20450;-61
2021/03/13 02:51:35;;;;;;;5.30;1.73;;;;;;;8.17;56.10;100282.38;4996667;28;20518;-61
2021/03/13 02:54:01;;;;;;;6.35;1.67;;;;;;;8.56;56.12;100335.53;4997483;28;20081;-61
2021/03/13 02:56:27;;;;;;;4.70;1.45;;;;;;;8.57;55.98;100334.47;4997332;28;20034;-61
2021/03/13 02:58:55;;;;;;;4.35;1.35;;;;;;;8.53;55.43;100321.66;4997464;28;20037;-61
2021/03/13 03:01:26;;;;;;;7.57;2.22;;;;;;;8.58;55.88;100338.81;4995961;28;20374;-61
2021/03/13 03:03:52;;;;;;;5.10;1.30;;;;;;;8.57;55.60;100320.88;4997592;28;20025;-61
2021/03/13 03:06:19;;;;;;;4.88;1.33;;;;;;;8.47;55.34;100296.38;4997327;28;20118;-61
2021/03/13 03:08:45;;;;;;;6.75;1.80;;;;;;;8.66;55.08;100329.31;4997620;28;20392;-61
2021/03/13 03:11:11;;;;;;;2.72;1.10;;;;;;;8.71;55.40;100331.22;4997477;28;20026;-61
2021/03/13 03:13:37;;;;;;;5.68;1.55;;;;;;;8.73;55.06;100324.44;4996719;28;20034;-61
2021/03/13 03:16:05;;;;;;;2.88;1.10;;;;;;;8.65;54.37;100312.19;4997065;28;20025;-61
2021/03/13 03:18:32;;;;;;;3.92;1.48;;;;;;;8.79;54.01;100328.00;4997071;28;20057;-61
2021/03/13 03:20:59;;;;;;;2.45;1.02;;;;;;;8.62;53.94;100292.88;4998163;28;20022;-61
2021/03/13 03:23:25;;;;;;;6.60;1.10;;;;;;;8.66;54.20;100288.53;5001028;28;20037;-61
2021/03/13 03:25:54;;;;;;;2.95;1.08;;;;;;;8.73;53.88;100291.81;5001086;28;20050;-61
2021/03/13 03:28:21;;;;;;;4.28;1.27;;;;;;;8.84;53.89;100309.00;5000314;28;20043;-61
2021/03/13 03:30:48;;;;;;;3.42;1.23;;;;;;;8.85;53.46;100307.88;5000750;28;20079;-61
2021/03/13 03:33:14;;;;;;;3.63;1.52;;;;;;;8.70;53.69;100289.66;5001043;28;20022;-61
2021/03/13 03:35:41;;;;;;;3.10;1.40;;;;;;;8.76;53.15;100298.63;4999737;28;20484;-61
2021/03/13 03:38:07;;;;;;;5.40;1.50;;;;;;;8.72;53.29;100303.78;5000744;28;20022;-61
2021/03/13 03:40:33;;;;;;;2.83;1.10;;;;;;;8.71;53.37;100304.88;4999249;28;20022;-61
2021/03/13 03:43:21;;;;;;;2.40;1.40;;;;;;;8.70;53.13;100302.41;4987889;28;20049;-61
2021/03/13 03:45:59;;;;;;;3.30;1.40;;;;;;;8.49;53.02;100275.19;4999849;28;20026;-61
2021/03/13 03:48:25;;;;;;;2.55;1.35;;;;;;;8.68;53.24;100293.72;5000378;28;20121;-61
2021/03/13 03:50:51;;;;;;;4.28;1.35;;;;;;;8.59;53.19;100269.78;5000424;28;20057;-61
2021/03/13 03:53:20;;;;;;;3.60;0.90;;;;;;;8.78;52.97;100293.72;5000155;28;20038;-61
2021/03/13 03:55:49;;;;;;;4.45;1.17;;;;;;;8.86;52.76;100292.41;4999785;28;20085;-61
2021/03/13 03:58:28;;;;;;;5.03;1.38;;;;;;;8.86;52.40;100276.06;5000328;28;20121;-61
2021/03/13 04:00:55;;;;;;;3.53;0.98;;;;;;;9.02;52.56;100298.66;4998591;28;20027;-61
2021/03/13 04:03:23;;;;;;;4.85;1.55;;;;;;;9.05;52.20;100309.00;5000068;28;20030;-61
2021/03/13 04:05:49;;;;;;;5.93;1.63;;;;;;;8.93;52.09;100290.22;4998856;28;20033;-61
2021/03/13 04:08:18;;;;;;;3.83;1.30;;;;;;;8.96;51.82;100311.44;4998736;28;20039;-61
2021/03/13 04:10:45;;;;;;;7.57;1.50;;;;;;;8.90;51.82;100310.63;4999374;28;20113;-61
2021/03/13 04:13:12;;;;;;;4.85;1.40;;;;;;;8.83;52.00;100301.91;4999947;28;20042;-61
2021/03/13 04:15:42;;;;;;;5.45;1.65;;;;;;;8.87;51.99;100313.06;4999369;28;20461;-60
2021/03/13 04:18:09;;;;;;;3.22;1.25;;;;;;;8.85;51.91;100302.44;4999888;28;20026;-61
2021/03/13 04:20:36;;;;;;;1.95;1.23;;;;;;;8.81;52.22;100306.78;5000021;28;20470;-61
2021/03/13 04:23:02;;;;;;;4.18;1.42;;;;;;;8.76;52.13;100301.34;4998774;28;20030;-62
2021/03/13 04:25:30;;;;;;;3.97;1.52;;;;;;;8.72;51.81;100305.69;4999734;28;20026;-61
2021/03/13 04:27:56;;;;;;;4.43;1.65;;;;;;;8.20;51.71;100234.84;4999535;28;20070;-61
2021/03/13 04:30:22;;;;;;;4.53;1.40;;;;;;;8.58;51.88;100287.19;4999073;28;20034;-61
2021/03/13 04:32:51;;;;;;;3.75;1.48;;;;;;;8.50;52.05;100282.25;4998097;28;20057;-61
2021/03/13 04:35:20;;;;;;;4.53;1.35;;;;;;;8.63;52.06;100297.25;4999145;28;20051;-61
2021/03/13 04:37:47;;;;;;;4.88;1.27;;;;;;;8.62;52.21;100304.56;4999422;28;20096;-61
2021/03/13 04:40:14;;;;;;;4.88;1.67;;;;;;;8.52;52.25;100301.81;4999019;28;20030;-61
2021/03/13 04:42:42;;;;;;;3.65;1.20;;;;;;;8.33;52.14;100253.38;4999199;28;20030;-61
2021/03/13 04:45:13;;;;;;;2.85;1.42;;;;;;;8.59;51.94;100294.25;4998740;28;20644;-61
2021/03/13 04:47:48;;;;;;;5.30;1.45;;;;;;;8.61;51.86;100286.63;4998905;28;20077;-61
2021/03/13 04:50:16;;;;;;;4.13;1.23;;;;;;;8.60;51.91;100289.63;4998386;28;20026;-61
2021/03/13 04:52:41;;;;;;;2.92;1.20;;;;;;;8.58;51.92;100283.63;4999156;28;20109;-61
2021/03/13 04:55:08;;;;;;;3.85;1.20;;;;;;;8.57;51.98;100299.13;4997974;28;20061;-61
2021/03/13 04:57:34;;;;;;;2.40;1.13;;;;;;;8.55;52.06;100293.13;4998159;28;20137;-61
2021/03/13 05:00:00;;;;;;;1.98;0.93;;;;;;;8.56;51.55;100300.22;4998799;28;20026;-61
2021/03/13 05:02:25;;;;;;;3.65;1.45;;;;;;;8.57;51.82;100295.56;4998386;28;20027;-61
2021/03/13 05:04:50;;;;;;;4.45;1.30;;;;;;;8.49;52.06;100283.34;4999002;28;20037;-61
2021/03/13 05:07:16;;;;;;;2.85;1.30;;;;;;;8.55;52.20;100301.28;4999192;28;20026;-61
2021/03/13 05:09:41;;;;;;;4.05;1.40;;;;;;;8.51;52.05;100294.78;4998672;28;20041;-61
2021/03/13 05:12:07;;;;;;;3.30;1.17;;;;;;;8.45;51.84;100293.06;4997190;28;20038;-61
2021/03/13 05:14:33;;;;;;;6.05;1.70;;;;;;;8.41;52.41;100298.22;4998738;28;20073;-61
2021/03/13 05:17:00;;;;;;;7.05;1.40;;;;;;;8.39;52.50;100294.13;4997901;28;20096;-61
2021/03/13 05:19:25;;;;;;;5.00;1.73;;;;;;;8.32;52.48;100297.09;4998821;28;20528;-61
2021/03/13 05:21:51;;;;;;;5.72;1.70;;;;;;;8.28;52.28;100294.09;4998702;28;20540;-61
2021/03/13 05:24:16;;;;;;;4.28;1.70;;;;;;;8.23;52.77;100295.97;4998730;28;20026;-61
2021/03/13 05:26:42;;;;;;;5.00;1.40;;;;;;;7.74;52.42;100221.91;4998074;28;20030;-61
2021/03/13 05:29:07;;;;;;;5.32;1.45;;;;;;;8.11;52.70;100283.44;4997918;28;20053;-61
2021/03/13 05:31:33;;;;;;;2.50;1.20;;;;;;;8.08;53.11;100292.09;4997665;28;20034;-61
2021/03/13 05:33:58;;;;;;;2.67;1.20;;;;;;;8.04;52.85;100291.00;4997958;28;20405;-61
2021/03/13 05:36:23;;;;;;;2.97;1.50;;;;;;;7.97;53.17;100298.59;4998158;28;20195;-61
2021/03/13 05:38:49;;;;;;;3.78;1.38;;;;;;;7.93;53.18;100309.16;4997543;28;20548;-61
2021/03/13 05:41:16;;;;;;;3.42;1.33;;;;;;;7.88;53.77;100303.69;4997873;28;20386;-61
2021/03/13 05:43:41;;;;;;;4.18;1.60;;;;;;;7.81;53.70;100303.09;4997508;28;20106;-61
2021/03/13 05:46:07;;;;;;;5.05;1.40;;;;;;;7.84;54.25;100310.72;4997931;28;20050;-61
2021/03/13 05:48:34;;;;;;;3.10;1.60;;;;;;;7.75;54.36;100299.53;4997673;28;20037;-61
2021/03/13 05:51:01;;;;;;;4.90;1.52;;;;;;;7.73;54.21;100304.41;4997690;28;20014;-61
2021/03/13 05:53:27;;;;;;;5.93;1.70;;;;;;;7.82;54.43;100315.59;4997412;28;20350;-61
2021/03/13 05:55:54;;;;;;;4.80;1.70;;;;;;;7.80;54.49;100312.31;4997030;28;20027;-61
2021/03/13 05:58:21;;;;;;;4.93;1.83;;;;;;;7.70;54.45;100313.88;4998226;28;20033;-61
2021/03/13 06:00:47;;;;;;;2.80;1.70;;;;;;;7.68;54.67;100315.22;4996883;28;20041;-61
2021/03/13 06:03:14;;;;;;;3.92;1.75;;;;;;;7.77;54.68;100329.94;4997479;28;20022;-61
2021/03/13 06:05:40;;;;;;;6.88;2.08;;;;;;;7.76;54.83;100331.03;4997142;28;20060;-61
2021/03/13 06:08:06;;;;;;;3.50;1.67;;;;;;;7.76;54.89;100335.66;4997920;28;20026;-61
2021/03/13 06:10:31;;;;;;;5.28;2.30;;;;;;;7.75;55.03;100334.00;4996994;28;20026;-61
2021/03/13 06:12:57;;;;;;;4.68;1.90;;;;;;;7.76;54.77;100332.94;4997755;28;20084;-61
2021/03/13 06:15:23;;;;;;;4.68;1.88;;;;;;;7.75;55.12;100334.81;4997206;28;20030;-61
2021/03/13 06:17:59;;;;;;;4.25;1.60;;;;;;;7.63;54.74;100315.22;4997055;28;20022;-60
2021/03/13 06:20:29;;;;;;;4.85;2.20;;;;;;;7.68;54.87;100326.91;4997592;28;20039;-61
2021/03/13 06:22:55;;;;;;;9.32;1.90;;;;;;;7.56;54.83;100310.00;4997662;28;20062;-61
2021/03/13 06:25:24;;;;;;;5.72;1.65;;;;;;;7.66;55.17;100329.06;4997197;28;20033;-61
2021/03/13 06:28:05;;;;;;;3.08;1.70;;;;;;;7.67;54.99;100330.72;4997332;28;20060;-61
2021/03/13 06:30:35;;;;;;;3.55;1.70;;;;;;;7.67;54.84;100328.00;4996799;28;20038;-61
2021/03/13 06:33:16;;;;;;;3.17;1.60;;;;;;;7.64;54.63;100327.69;4997093;28;20042;-61
2021/03/13 06:35:42;;;;;;;4.72;2.00;;;;;;;7.75;54.44;100331.31;4997272;28;20045;-61
2021/03/13 06:38:18;;;;;;;3.97;1.73;;;;;;;7.81;54.43;100338.38;4996990;28;20398;-61
2021/03/13 06:40:45;;;;;;;3.53;1.45;;;;;;;7.85;54.21;100331.38;4997262;28;20442;-61
2021/03/13 06:43:31;;;;;;;3.70;1.80;;;;;;;7.92;53.62;100331.13;4996832;28;20033;-61
2021/03/13 06:46:01;;;;;;;3.45;1.40;;;;;;;7.90;54.10;100330.56;4997288;28;20413;-61
2021/03/13 06:48:41;;;;;;;4.78;1.65;;;;;;;7.92;53.91;100331.13;4997005;28;20069;-61
2021/03/13 06:51:33;;;;;;;3.30;1.60;;;;;;;7.96;53.42;100332.25;4997113;28;20077;-61
2021/03/13 06:54:16;;;;;;;3.67;1.50;;;;;;;7.87;53.48;100319.16;4996107;28;20027;-61
2021/03/13 06:56:47;;;;;;;8.35;1.83;;;;;;;7.98;53.52;100341.75;4996069;28;20022;-61
2021/03/13 06:59:36;;;;;;;9.18;1.65;;;;;;;8.00;53.52;100353.19;4996837;28;20054;-61
2021/03/13 07:02:10;;;;;;;5.00;1.95;;;;;;;8.00;53.62;100355.06;4996335;28;20026;-61
2021/03/13 07:04:42;;;;;;;4.10;1.73;;;;;;;8.00;53.91;100361.34;4996629;28;20022;-61
2021/03/13 07:07:09;;;;;;;4.55;1.50;;;;;;;8.00;53.82;100357.78;4996745;28;20114;-61
2021/03/13 07:09:53;;;;;;;6.72;1.67;;;;;;;8.00;53.76;100360.50;4996679;28;20036;-61
2021/03/13 07:12:25;;;;;;;4.53;1.73;;;;;;;7.99;53.86;100359.69;4995909;28;20061;-61
2021/03/13 07:14:52;;;;;;;4.28;1.83;;;;;;;7.87;53.47;100349.03;4996720;28;20351;-61
2021/03/13 07:17:18;;;;;;;3.45;1.48;;;;;;;7.92;53.52;100355.56;4996727;28;20018;-61
2021/03/13 07:19:44;;;;;;;3.65;1.73;;;;;;;8.02;53.55;100370.00;4996909;28;20037;-61
2021/03/13 07:22:13;;;;;;;2.72;1.50;;;;;;;8.07;53.70;100366.50;4997454;28;20473;-61
2021/03/13 07:24:52;;;;;;;3.97;1.90;;;;;;;8.11;53.32;100367.63;4997262;28;20100;-61
2021/03/13 07:27:21;;;;;;;3.92;1.67;;;;;;;8.10;53.82;100370.63;4996497;28;20426;-61
2021/03/13 07:29:48;;;;;;;4.95;1.73;;;;;;;8.14;53.89;100377.97;4996615;28;20034;-61
2021/03/13 07:32:18;;;;;;;3.45;1.65;;;;;;;8.15;53.38;100357.88;4996661;28;20476;-61
2021/03/13 07:34:45;;;;;;;4.47;1.95;;;;;;;8.25;53.72;100372.59;4996979;28;20035;-61
2021/03/13 07:37:17;;;;;;;6.22;1.55;;;;;;;8.29;53.36;100374.50;4997235;28;20022;-61
2021/03/13 07:39:46;;;;;;;3.35;1.70;;;;;;;8.33;53.38;100375.63;4996478;28;20363;-61
2021/03/13 07:42:15;;;;;;;2.70;1.70;;;;;;;8.37;53.62;100381.34;4996770;28;20041;-61
2021/03/13 07:44:41;;;;;;;5.50;2.35;;;;;;;8.40;53.24;100380.00;4996484;28;20038;-61
2021/03/13 07:47:07;;;;;;;5.22;2.10;;;;;;;8.36;53.33;100363.41;4996886;28;20082;-61
2021/03/13 07:49:34;;;;;;;3.78;1.88;;;;;;;8.47;53.57;100381.41;4996253;28;20050;-61
2021/03/13 07:52:00;;;;;;;5.45;1.70;;;;;;;8.51;53.68;100376.31;4996550;28;20040;-61
2021/03/13 07:54:29;;;;;;;4.70;2.10;;;;;;;8.58;53.71;100385.03;4996320;28;20085;-61
2021/03/13 07:56:55;;;;;;;4.10;1.60;;;;;;;8.54;53.55;100367.59;4996431;28;20037;-61
2021/03/13 07:59:40;;;;;;;5.65;2.05;;;;;;;8.69;53.33;100379.59;4995675;28;20031;-61
2021/03/13 08:02:06;;;;;;;5.55;1.75;;;;;;;8.63;53.49;100381.50;4995978;28;20054;-61
2021/03/13 08:04:37;;;;;;;3.88;1.70;;;;;;;8.75;53.44;100392.97;4996427;28;20644;-61
2021/03/13 08:07:03;;;;;;;3.38;1.70;;;;;;;8.79;53.37;100402.22;4996914;28;20030;-61
2021/03/13 08:09:29;;;;;;;4.82;1.73;;;;;;;8.82;53.47;100400.88;5000140;28;20127;-63
2021/03/13 08:11:54;;;;;;;7.82;2.00;;;;;;;8.86;53.35;100410.13;4999779;28;20034;-62
2021/03/13 08:14:33;;;;;;;4.28;1.80;;;;;;;8.90;53.71;100396.81;4999074;28;20037;-63
2021/03/13 08:17:07;;;;;;;5.45;2.10;;;;;;;9.00;53.57;100404.19;4999326;28;20493;-62
2021/03/13 08:19:45;;;;;;;5.40;1.80;;;;;;;9.09;54.06;100408.03;4999648;28;20030;-63
2021/03/13 08:22:14;;;;;;;5.57;2.15;;;;;;;9.18;53.65;100411.84;4999537;28;20026;-62
2021/03/13 08:24:42;;;;;;;7.13;2.40;;;;;;;9.21;53.56;100411.31;4999333;28;20026;-63
2021/03/13 08:27:08;;;;;;;3.63;1.85;;;;;;;9.25;53.44;100412.41;4999545;28;20058;-63
2021/03/13 08:29:52;;;;;;;3.78;2.00;;;;;;;8.86;53.31;100328.53;4998785;28;20493;-63
2021/03/13 08:32:55;;;;;;;3.50;1.58;;;;;;;9.39;53.16;100404.53;4997942;28;20026;-60
2021/03/13 08:35:50;;;;;;;7.70;1.75;;;;;;;9.40;53.36;100395.28;4999518;28;20112;-60
2021/03/13 08:38:18;;;;;;;4.43;2.03;;;;;;;9.59;53.33;100408.38;4999441;28;20117;-60
2021/03/13 08:40:50;;;;;;;3.88;2.03;;;;;;;9.54;53.07;100386.59;4998676;28;20023;-63
2021/03/13 08:43:36;;;;;;;5.57;2.20;;;;;;;9.80;53.13;100402.91;4999383;28;20027;-60
2021/03/13 08:46:03;;;;;;;5.30;2.42;;;;;;;9.66;53.33;100386.31;4999318;28;20026;-63
2021/03/13 08:49:01;;;;;;;4.43;1.33;;;;;;;9.97;53.23;100410.81;4999375;28;20062;-60
2021/03/13 08:51:27;;;;;;;5.45;1.65;;;;;;;10.07;53.16;100416.25;4995648;28;20045;-63
2021/03/13 08:53:53;;;;;;;6.60;1.80;;;;;;;10.17;52.80;100421.66;4999471;28;20022;-63
2021/03/13 08:56:45;;;;;;;8.55;1.88;;;;;;;10.23;52.51;100422.47;4998953;28;20026;-64
2021/03/13 08:59:19;;;;;;;5.30;1.63;;;;;;;10.02;52.95;100375.38;4998887;28;20062;-64
2021/03/13 09:02:06;;;;;;;6.75;1.50;;;;;;;10.22;53.07;100402.59;4999030;28;20038;-64
2021/03/13 09:04:33;;;;;;;5.53;1.35;;;;;;;10.25;53.30;100406.66;4998639;28;20634;-62
2021/03/13 09:06:59;;;;;;;7.03;1.58;;;;;;;10.33;53.11;100397.94;4999372;28;20038;-61
2021/03/13 09:09:27;;;;;;;3.95;1.42;;;;;;;10.31;53.57;100388.41;4999019;28;20034;-62
2021/03/13 09:12:11;;;;;;;4.85;1.58;;;;;;;10.52;53.61;100397.38;4998691;28;20026;-61
2021/03/13 09:14:41;;;;;;;5.88;1.80;;;;;;;10.58;53.40;100398.97;4994998;28;20026;-63
2021/03/13 09:17:18;;;;;;;7.18;1.50;;;;;;;10.62;53.63;100394.56;4994812;28;20026;-62
2021/03/13 09:19:46;;;;;;;8.45;1.95;;;;;;;10.78;53.61;100408.19;4998253;28;20022;-62
2021/03/13 09:22:14;;;;;;;5.10;1.60;;;;;;;10.82;53.72;100396.44;4998944;28;20567;-61
2021/03/13 09:24:40;;;;;;;8.65;1.70;;;;;;;10.96;53.51;100404.00;4993504;28;20057;-62
2021/03/13 09:27:07;;;;;;;6.00;1.52;;;;;;;10.92;53.35;100378.34;4998184;28;20018;-61
2021/03/13 09:29:40;;;;;;;4.97;1.38;;;;;;;10.99;53.37;100387.06;4998393;28;20050;-61
2021/03/13 09:32:11;;;;;;;8.40;1.75;;;;;;;11.17;53.19;100394.56;4993011;28;20054;-62
2021/03/13 09:34:42;;;;;;;10.32;1.60;;;;;;;11.22;53.07;100388.28;4998383;28;20038;-61
2021/03/13 09:37:16;;;;;;;7.30;1.33;;;;;;;11.15;52.94;100368.66;4999218;28;20034;-61
2021/03/13 09:39:45;;;;;;;6.57;1.60;;;;;;;11.32;53.27;100387.41;4998247;28;20042;-61
2021/03/13 09:42:16;;;;;;;6.22;1.98;;;;;;;11.37;53.33;100376.44;4998455;28;20105;-60
2021/03/13 09:44:44;;;;;;;5.22;1.45;;;;;;;11.43;53.28;100382.69;4998217;28;20355;-60
2021/03/13 09:47:11;;;;;;;7.28;2.00;;;;;;;11.53;52.92;100379.06;5001657;28;20042;-61
2021/03/13 09:49:37;;;;;;;7.35;1.80;;;;;;;11.59;52.88;100383.38;4998089;28;20034;-61
2021/03/13 09:52:02;;;;;;;6.15;1.80;;;;;;;11.64;52.91;100381.41;4998035;28;20041;-61
2021/03/13 09:54:28;;;;;;;7.20;1.45;;;;;;;11.74;52.46;100368.78;4998240;28;20053;-61
2021/03/13 09:56:54;;;;;;;7.93;1.55;;;;;;;11.82;51.82;100377.16;4997986;28;20126;-61
2021/03/13 09:59:19;;;;;;;4.80;1.35;;;;;;;11.82;50.72;100368.16;4998105;28;20041;-61
2021/03/13 10:01:45;;;;;;;4.90;1.90;;;;;;;11.93;50.29;100377.06;4997648;28;20034;-61
2021/03/13 10:04:11;;;;;;;8.27;1.77;;;;;;;11.99;50.56;100375.94;4997518;28;20022;-61
2021/03/13 10:06:36;;;;;;;5.25;1.50;;;;;;;11.96;50.23;100368.28;4997539;28;20387;-61
2021/03/13 10:09:02;;;;;;;6.03;1.35;;;;;;;12.04;50.04;100369.59;4997414;28;20355;-61
2021/03/13 10:11:39;;;;;;;4.00;1.30;;;;;;;12.06;49.83;100370.13;4996829;28;20064;-61
2021/03/13 10:14:04;;;;;;;9.65;1.90;;;;;;;12.12;49.83;100375.25;4997309;28;20038;-61
2021/03/13 10:16:32;;;;;;;4.55;1.55;;;;;;;12.15;49.28;100368.41;4997166;28;20048;-61
2021/03/13 10:18:57;;;;;;;6.03;1.20;;;;;;;12.21;49.09;100374.63;4997636;28;20053;-61
2021/03/13 10:21:23;;;;;;;5.90;1.08;;;;;;;12.26;49.12;100363.63;4998069;28;20480;-62
2021/03/13 10:23:57;;;;;;;7.45;1.30;;;;;;;12.39;48.73;100370.31;4997798;28;20037;-62
2021/03/13 10:26:26;;;;;;;8.40;1.23;;;;;;;12.46;48.52;100359.03;4997705;28;20026;-62
2021/03/13 10:28:52;;;;;;;7.03;2.33;;;;;;;12.28;47.78;100329.41;4997705;28;20054;-62
2021/03/13 10:31:19;;;;;;;5.00;1.52;;;;;;;12.58;47.71;100360.25;4996641;28;20080;-62
2021/03/13 10:33:47;;;;;;;5.97;1.40;;;;;;;12.66;46.68;100356.03;4997249;28;20033;-62
2021/03/13 10:36:15;;;;;;;4.88;1.83;;;;;;;12.58;45.81;100345.75;4995669;28;20030;-61
2021/03/13 10:38:50;;;;;;;3.33;1.08;;;;;;;12.72;44.97;100363.09;4997607;28;20022;-61
2021/03/13 10:41:20;;;;;;;1.90;0.73;;;;;;;12.73;44.57;100361.94;4997301;28;20060;-61
2021/03/13 10:43:46;;;;;;;2.10;0.98;;;;;;;12.75;44.30;100343.31;4998067;28;20745;-61
2021/03/13 10:46:20;;;;;;;6.22;1.48;;;;;;;12.87;44.54;100359.31;4997192;28;20078;-61
2021/03/13 10:48:51;;;;;;;2.60;1.00;;;;;;;12.97;44.57;100350.16;4997424;28;20022;-61
2021/03/13 10:51:51;;;;;;;4.82;1.30;;;;;;;13.13;43.25;100349.94;4997665;28;20027;-61
2021/03/13 10:54:24;;;;;;;4.88;1.10;;;;;;;13.24;43.46;100343.16;4988846;28;20080;-61
2021/03/13 10:56:50;;;;;;;3.03;0.90;;;;;;;13.36;42.85;100349.00;4997866;28;20041;-61
2021/03/13 10:59:16;;;;;;;2.20;0.70;;;;;;;13.38;42.49;100341.34;4997095;28;20442;-61
2021/03/13 11:01:44;;;;;;;4.43;0.88;;;;;;;13.40;42.67;100342.97;4996451;28;20030;-61
2021/03/13 11:04:09;;;;;;;4.38;0.90;;;;;;;13.41;42.79;100347.31;4994986;28;20026;-61
2021/03/13 11:06:35;;;;;;;2.40;0.82;;;;;;;13.31;42.72;100340.88;4995699;28;20034;-61
2021/03/13 11:09:04;;;;;;;4.43;1.13;;;;;;;13.23;42.63;100331.41;4998112;28;20744;-61
2021/03/13 11:11:29;;;;;;;4.45;1.42;;;;;;;13.20;42.71;100340.22;4997201;28;20120;-61
2021/03/13 11:13:55;;;;;;;3.85;1.20;;;;;;;13.20;42.36;100326.53;4997468;28;20108;-61
2021/03/13 11:16:23;;;;;;;3.50;1.20;;;;;;;13.12;41.89;100324.47;4997312;28;20026;-61
2021/03/13 11:18:51;;;;;;;3.60;1.08;;;;;;;13.11;42.18;100322.03;4996965;28;20026;-61
2021/03/13 11:21:17;;;;;;;4.18;1.30;;;;;;;13.11;42.24;100322.03;4997689;28;20026;-61
2021/03/13 11:23:43;;;;;;;2.80;1.27;;;;;;;13.17;41.80;100316.19;4997540;28;20041;-62
2021/03/13 11:26:11;;;;;;;3.63;1.20;;;;;;;13.13;42.11;100308.88;4997432;28;20026;-61
2021/03/13 11:28:36;;;;;;;6.68;1.27;;;;;;;13.21;41.73;100291.75;4992114;28;20130;-61
2021/03/13 11:31:02;;;;;;;8.05;1.45;;;;;;;13.36;41.69;100301.63;4997087;28;20034;-61
2021/03/13 11:33:27;;;;;;;6.72;1.30;;;;;;;12.83;41.40;100193.28;4995258;28;20413;-61
2021/03/13 11:35:53;;;;;;;2.47;1.17;;;;;;;13.59;41.19;100302.66;4996826;28;20030;-61
2021/03/13 11:38:18;;;;;;;6.78;1.35;;;;;;;13.72;40.32;100283.81;4996813;28;20034;-61
2021/03/13 11:40:43;;;;;;;2.80;1.05;;;;;;;13.85;39.57;100285.75;4996893;28;20030;-61